CheckWX is a tool to help pilots better visualize weather data.  It is not intended as a substitute for an official pre-flight weather briefing.

18:19:46 UTC

KCBM METAR
Columbus AFB Airport
Columbus, Mississippi, USA
Current

24 mins ago

KCBM 171756Z AUTO 20005KT 10SM FEW014 18/15 A2978 RMK AO2 PRESFR SLP087 60001 T01760149 10176 20103 57013 $
Observed
Feb-17 @ 17:56 UTC
Wind
  • 200° at 5 KTS
Visibility
10 SM
Flight Rules
VFR
Cloud Levels
  • Few at 1,400' AGL
Temperature
18°C / 64°F
Dewpoint
15°C / 59°F
Humidity
83%
Altimeter
29.78" Hg
Pressure
1008.7 hPa
Previous

39 mins ago

KCBM 171741Z AUTO 20007KT 10SM SCT014 SCT035 17/15 A2980 RMK AO2 SLP094 $
Observed
Feb-17 @ 17:41 UTC
Wind
  • 200° at 7 KTS
Visibility
10 SM
Flight Rules
VFR
Cloud Levels
  • Scattered at 1,400' AGL
  • Scattered at 3,500' AGL
Temperature
17°C / 63°F
Dewpoint
15°C / 59°F
Humidity
88%
Altimeter
29.8" Hg
Pressure
1009.4 hPa
Previous

1 hour ago

KCBM 171716Z AUTO 20007KT 10SM SCT016 SCT024 BKN034 BKN050 17/14 A2981 RMK AO2 SLP097 $
Observed
Feb-17 @ 17:16 UTC
Wind
  • 200° at 7 KTS
Visibility
10 SM
Flight Rules
VFR
Cloud Levels
  • Scattered at 1,600' AGL
  • Scattered at 2,400' AGL
  • Broken at 3,400' AGL
  • Broken at 5,000' AGL
Temperature
17°C / 63°F
Dewpoint
14°C / 57°F
Humidity
83%
Altimeter
29.81" Hg
Pressure
1009.7 hPa